createdAt,value
2018-08-18T00:11:54.846Z,8.48
2018-08-18T00:14:23.393Z,8.30
2018-08-18T00:16:51.923Z,8.78
2018-08-18T00:19:22.697Z,8.08
2018-08-18T00:21:52.456Z,8.43
2018-08-18T00:24:21.539Z,8.53
2018-08-18T00:26:50.042Z,9.13
2018-08-18T00:29:18.586Z,9.10
2018-08-18T00:31:53.688Z,8.45
2018-08-18T00:34:22.964Z,9.18
2018-08-18T00:36:53.072Z,9.10
2018-08-18T00:39:21.609Z,8.70
2018-08-18T00:41:52.501Z,8.05
2018-08-18T00:44:23.601Z,8.35
2018-08-18T00:46:52.174Z,8.58
2018-08-18T00:49:21.673Z,8.25
2018-08-18T00:51:55.142Z,7.85
2018-08-18T00:54:23.597Z,7.85
2018-08-18T00:56:52.333Z,8.20
2018-08-18T00:59:54.379Z,7.95
2018-08-18T01:02:23.670Z,9.23
2018-08-18T01:05:01.369Z,10.35
2018-08-18T01:07:31.297Z,10.48
2018-08-18T01:10:01.720Z,10.20
2018-08-18T01:12:30.358Z,10.60
2018-08-18T01:14:58.826Z,10.23
2018-08-18T01:17:28.077Z,10.45
2018-08-18T01:19:58.829Z,10.95
2018-08-18T01:22:27.286Z,11.28
2018-08-18T01:24:55.993Z,10.65
2018-08-18T01:27:24.462Z,10.05
2018-08-18T01:29:58.942Z,10.70
2018-08-18T01:32:27.493Z,10.85
2018-08-18T01:35:00.461Z,10.05
2018-08-18T01:37:31.774Z,10.00
2018-08-18T01:40:00.256Z,9.93
2018-08-18T01:42:30.849Z,10.23
2018-08-18T01:44:59.312Z,10.18
2018-08-18T01:47:27.789Z,10.18
2018-08-18T01:49:57.817Z,10.65
2018-08-18T01:52:26.258Z,9.98
2018-08-18T01:54:59.008Z,10.45
2018-08-18T01:57:27.489Z,10.20
2018-08-18T01:59:55.921Z,10.43
2018-08-18T02:02:25.680Z,10.60
2018-08-18T02:04:54.732Z,10.38
2018-08-18T02:07:26.564Z,10.30
2018-08-18T02:09:56.080Z,10.23
2018-08-18T02:12:25.107Z,11.68
2018-08-18T02:14:54.065Z,11.75
2018-08-18T02:17:26.373Z,10.70
2018-08-18T02:19:55.530Z,10.60
2018-08-18T02:22:26.498Z,10.08
2018-08-18T02:24:54.966Z,10.48
2018-08-18T02:27:23.397Z,10.53
2018-08-18T02:30:04.466Z,12.00
2018-08-18T02:32:36.069Z,12.03
2018-08-18T02:35:05.385Z,11.40
2018-08-18T02:37:34.137Z,11.65
2018-08-18T02:40:02.921Z,11.50
2018-08-18T02:42:31.389Z,12.20
2018-08-18T02:45:00.518Z,12.05
2018-08-18T02:47:28.949Z,11.68
2018-08-18T02:50:00.336Z,11.73
2018-08-18T02:52:32.636Z,12.73
2018-08-18T02:55:03.172Z,11.95
2018-08-18T02:57:35.744Z,12.03
2018-08-18T03:00:10.981Z,11.88
2018-08-18T03:02:39.946Z,10.40
2018-08-18T03:05:09.192Z,9.88
2018-08-18T03:07:42.411Z,10.35
2018-08-18T03:10:15.904Z,8.98
2018-08-18T03:12:46.582Z,9.33
2018-08-18T03:15:52.757Z,9.88
2018-08-18T03:18:36.031Z,10.10
2018-08-18T03:21:04.598Z,9.70
2018-08-18T03:23:34.054Z,9.08
2018-08-18T03:26:03.293Z,9.85
2018-08-18T03:29:03.934Z,9.30
2018-08-18T03:31:32.333Z,9.50
2018-08-18T03:34:02.201Z,10.00
2018-08-18T03:36:32.076Z,10.23
2018-08-18T03:39:01.334Z,9.85
2018-08-18T03:41:30.443Z,10.05
2018-08-18T03:43:59.672Z,9.60
2018-08-18T03:46:29.868Z,10.28
2018-08-18T03:48:59.044Z,9.95
2018-08-18T03:51:32.841Z,9.98
2018-08-18T03:54:01.918Z,9.93
2018-08-18T03:56:30.404Z,10.13
2018-08-18T03:58:59.896Z,10.43
2018-08-18T04:01:39.369Z,10.72
2018-08-18T04:04:10.576Z,11.33
2018-08-18T04:06:41.029Z,11.22
2018-08-18T04:09:14.597Z,11.08
2018-08-18T04:11:43.105Z,11.60
2018-08-18T04:14:12.777Z,12.37
2018-08-18T04:16:45.381Z,12.90
2018-08-18T04:19:18.076Z,12.00
2018-08-18T04:21:46.945Z,12.40
2018-08-18T04:24:16.053Z,12.40
2018-08-18T04:26:46.680Z,12.40
2018-08-18T04:29:15.293Z,12.13
2018-08-18T04:31:44.564Z,12.65
2018-08-18T04:34:13.549Z,12.60
2018-08-18T04:36:41.996Z,13.55
2018-08-18T04:41:47.352Z,12.93
2018-08-18T04:44:15.805Z,13.58
2018-08-18T04:46:48.521Z,12.35
2018-08-18T04:49:16.978Z,12.23
2018-08-18T04:51:45.833Z,13.05
2018-08-18T04:54:14.977Z,13.22
2018-08-18T04:56:43.675Z,12.15
2018-08-18T04:59:12.627Z,13.03
2018-08-18T05:01:45.969Z,13.13
2018-08-18T05:04:15.037Z,12.30
2018-08-18T05:06:44.013Z,11.15
2018-08-18T05:09:14.538Z,12.00
2018-08-18T05:11:43.137Z,11.83
2018-08-18T05:14:11.761Z,12.40
2018-08-18T05:19:12.693Z,11.43
2018-08-18T05:21:41.138Z,12.40
2018-08-18T05:24:22.444Z,11.18
2018-08-18T05:26:51.657Z,12.37
2018-08-18T05:29:20.128Z,11.48
2018-08-18T05:31:48.618Z,11.48
2018-08-18T05:34:17.712Z,12.78
2018-08-18T05:36:46.129Z,13.08
2018-08-18T05:39:14.716Z,11.90
2018-08-18T05:41:43.368Z,14.13
2018-08-18T05:44:16.024Z,11.90
2018-08-18T05:46:44.486Z,11.88
2018-08-18T05:49:15.839Z,11.73
2018-08-18T05:51:46.925Z,11.48
2018-08-18T05:54:21.131Z,11.33
2018-08-18T05:56:49.862Z,11.18
2018-08-18T05:59:18.444Z,11.03
2018-08-18T06:01:47.007Z,10.95
2018-08-18T06:04:17.595Z,10.93
2018-08-18T06:06:47.597Z,10.10
2018-08-18T06:09:17.734Z,10.82
2018-08-18T06:11:46.331Z,10.25
2018-08-18T06:14:15.745Z,10.82
2018-08-18T06:16:45.719Z,11.10
2018-08-18T06:19:19.069Z,9.80
2018-08-18T06:21:56.300Z,8.73
2018-08-18T06:24:29.285Z,9.18
2018-08-18T06:26:58.059Z,8.48
2018-08-18T06:29:31.875Z,8.98
2018-08-18T06:34:37.224Z,8.78
2018-08-18T06:37:06.319Z,7.95
2018-08-18T06:39:53.216Z,7.30
2018-08-18T06:42:42.109Z,8.63
2018-08-18T06:45:16.920Z,6.92
2018-08-18T06:47:45.645Z,7.83
2018-08-18T06:50:17.649Z,7.45
2018-08-18T06:52:46.888Z,7.67
2018-08-18T06:55:17.863Z,6.85
2018-08-18T06:57:50.670Z,5.85
2018-08-18T07:00:22.627Z,5.60
2018-08-18T07:02:52.162Z,6.25
2018-08-18T07:05:20.989Z,5.72
2018-08-18T07:07:50.288Z,4.78
2018-08-18T07:10:32.089Z,4.92
2018-08-18T07:13:11.495Z,5.15
2018-08-18T07:15:42.149Z,5.50
2018-08-18T07:18:11.930Z,5.00
2018-08-18T07:20:41.517Z,5.50
2018-08-18T07:23:11.231Z,4.12
2018-08-18T07:25:47.224Z,4.40
2018-08-18T07:28:20.376Z,4.10
2018-08-18T07:30:48.859Z,3.98
2018-08-18T07:33:17.872Z,3.92
2018-08-18T07:35:46.962Z,4.00
2018-08-18T07:38:16.285Z,3.58
2018-08-18T07:40:45.964Z,3.70
2018-08-18T07:43:18.534Z,4.08
2018-08-18T07:45:47.593Z,4.40
2018-08-18T07:48:16.073Z,3.50
2018-08-18T07:50:49.084Z,3.80
2018-08-18T07:53:17.600Z,3.10
2018-08-18T07:55:46.787Z,3.60
2018-08-18T07:58:18.768Z,3.10
2018-08-18T08:00:47.291Z,3.50
2018-08-18T08:05:48.437Z,2.95
2018-08-18T08:08:16.875Z,3.25
2018-08-18T08:10:45.433Z,3.25
2018-08-18T08:13:14.957Z,2.80
2018-08-18T08:15:43.856Z,4.45
2018-08-18T08:18:14.076Z,2.80
2018-08-18T08:20:42.518Z,2.20
2018-08-18T08:23:11.659Z,2.20
2018-08-18T08:25:40.489Z,2.35
2018-08-18T08:28:09.902Z,2.50
2018-08-18T08:30:38.398Z,2.15
2018-08-18T08:33:07.336Z,2.60
2018-08-18T08:35:38.220Z,1.90
2018-08-18T08:38:06.774Z,2.30
2018-08-18T08:40:35.524Z,2.02
2018-08-18T08:43:04.114Z,2.20
2018-08-18T08:45:32.491Z,1.92
2018-08-18T08:48:00.979Z,1.77
2018-08-18T08:50:29.451Z,2.00
2018-08-18T08:52:59.361Z,2.02
2018-08-18T08:55:28.954Z,2.10
2018-08-18T08:57:57.909Z,2.20
2018-08-18T09:00:26.366Z,1.90
2018-08-18T09:02:56.015Z,1.82
2018-08-18T09:05:24.467Z,2.10
2018-08-18T09:07:53.200Z,2.10
2018-08-18T09:10:21.666Z,2.22
2018-08-18T09:12:51.143Z,1.95
2018-08-18T09:15:20.310Z,1.72
2018-08-18T09:17:49.112Z,2.02
2018-08-18T09:20:19.076Z,2.08
2018-08-18T09:22:55.546Z,1.90
2018-08-18T09:25:24.079Z,1.90
2018-08-18T09:27:55.581Z,2.40
2018-08-18T09:30:25.281Z,2.45
2018-08-18T09:32:53.752Z,1.90
2018-08-18T09:35:26.270Z,1.98
2018-08-18T09:37:58.342Z,2.30
2018-08-18T09:40:32.174Z,2.12
2018-08-18T09:43:04.145Z,2.27
2018-08-18T09:45:33.038Z,2.10
2018-08-18T09:48:01.581Z,2.22
2018-08-18T09:50:30.185Z,2.10
2018-08-18T09:52:58.911Z,1.85
2018-08-18T09:55:27.766Z,1.95
2018-08-18T09:57:57.478Z,1.67
2018-08-18T10:00:32.050Z,2.22
2018-08-18T10:03:01.845Z,2.05
2018-08-18T10:05:31.657Z,1.85
2018-08-18T10:08:00.228Z,1.87
2018-08-18T10:10:33.710Z,1.98
2018-08-18T10:13:02.234Z,1.70
2018-08-18T10:15:31.081Z,2.30
2018-08-18T10:17:59.934Z,2.00
2018-08-18T10:20:33.002Z,2.10
2018-08-18T10:23:02.043Z,1.62
2018-08-18T10:25:30.628Z,1.90
2018-08-18T10:27:59.053Z,1.50
2018-08-18T10:30:28.156Z,1.90
2018-08-18T10:32:57.964Z,2.02
2018-08-18T10:35:30.996Z,1.70
2018-08-18T10:38:01.002Z,1.90
2018-08-18T10:40:30.120Z,1.90
2018-08-18T10:42:59.222Z,1.80
2018-08-18T10:45:27.973Z,1.60
2018-08-18T10:47:57.080Z,1.87
2018-08-18T10:50:41.083Z,2.02
2018-08-18T10:53:13.453Z,1.60
2018-08-18T10:55:42.830Z,2.05
2018-08-18T10:58:12.101Z,1.90
2018-08-18T11:00:40.609Z,2.17
2018-08-18T11:03:10.917Z,1.80
2018-08-18T11:05:39.733Z,2.17
2018-08-18T11:08:12.677Z,2.00
2018-08-18T11:10:41.790Z,2.12
2018-08-18T11:13:10.625Z,1.82
2018-08-18T11:15:39.127Z,1.70
2018-08-18T11:18:08.561Z,1.70
2018-08-18T11:20:36.981Z,1.60
2018-08-18T11:23:10.849Z,1.67
2018-08-18T11:25:49.612Z,1.40
2018-08-18T11:28:19.072Z,1.62
2018-08-18T11:30:53.101Z,1.80
2018-08-18T11:33:34.957Z,1.57
2018-08-18T11:36:04.580Z,1.37
2018-08-18T11:38:34.069Z,1.42
2018-08-18T11:41:02.549Z,1.22
2018-08-18T11:43:48.965Z,1.30
2018-08-18T11:46:18.286Z,1.25
2018-08-18T11:48:48.225Z,1.10
2018-08-18T11:51:17.705Z,1.32
2018-08-18T11:53:59.103Z,1.47
2018-08-18T11:56:32.985Z,1.10
2018-08-18T11:59:18.009Z,1.20
2018-08-18T12:01:50.110Z,1.00
2018-08-18T12:04:20.229Z,1.30
2018-08-18T12:06:54.200Z,1.57
2018-08-18T12:09:23.188Z,1.22
2018-08-18T12:11:52.016Z,1.20
2018-08-18T12:14:21.680Z,1.30
2018-08-18T12:16:50.792Z,1.17
2018-08-18T12:19:19.214Z,1.15
2018-08-18T12:21:48.078Z,1.30
2018-08-18T12:24:21.910Z,1.70
2018-08-18T12:27:01.716Z,1.20
2018-08-18T12:29:31.591Z,1.50
2018-08-18T12:32:00.466Z,1.20
2018-08-18T12:34:29.233Z,2.17
2018-08-18T12:36:58.451Z,1.40
2018-08-18T12:39:27.497Z,1.30
2018-08-18T12:41:56.145Z,1.30
2018-08-18T12:44:29.788Z,1.25
2018-08-18T12:46:59.009Z,1.07
2018-08-18T12:49:27.532Z,1.27
2018-08-18T12:51:56.020Z,0.98
2018-08-18T12:54:24.452Z,1.20
2018-08-18T12:56:52.918Z,1.05
2018-08-18T12:59:21.329Z,1.00
2018-08-18T13:01:50.664Z,1.00
2018-08-18T13:04:20.590Z,1.17
2018-08-18T13:06:50.053Z,1.10
2018-08-18T13:09:19.994Z,1.25
2018-08-18T13:11:49.781Z,0.88
2018-08-18T13:14:19.921Z,0.90
2018-08-18T13:16:48.369Z,1.10
2018-08-18T13:19:18.933Z,1.00
2018-08-18T13:21:47.592Z,1.07
2018-08-18T13:24:16.417Z,1.42
2018-08-18T13:26:44.920Z,0.98
2018-08-18T13:29:13.858Z,1.02
2018-08-18T13:31:43.380Z,1.10
2018-08-18T13:34:13.572Z,0.90
2018-08-18T13:36:43.812Z,1.07
2018-08-18T13:39:14.696Z,1.00
2018-08-18T13:41:44.189Z,0.80
2018-08-18T13:44:16.841Z,1.17
2018-08-18T13:46:50.181Z,1.00
2018-08-18T13:49:22.214Z,1.00
2018-08-18T13:51:51.366Z,0.93
2018-08-18T13:54:19.951Z,1.22
2018-08-18T13:56:53.634Z,1.62
2018-08-18T13:59:46.657Z,1.17
2018-08-18T14:02:15.438Z,1.40
2018-08-18T14:04:44.543Z,1.60
2018-08-18T14:07:17.449Z,1.50
2018-08-18T14:09:51.675Z,1.70
2018-08-18T14:12:20.201Z,1.40
2018-08-18T14:14:49.649Z,1.45
2018-08-18T14:17:21.004Z,1.40
2018-08-18T14:19:50.362Z,1.30
2018-08-18T14:22:20.221Z,1.10
2018-08-18T14:27:22.700Z,1.30
2018-08-18T14:29:51.198Z,1.40
2018-08-18T14:32:24.960Z,1.22
2018-08-18T14:34:58.757Z,1.50
2018-08-18T14:37:31.037Z,1.65
2018-08-18T14:39:59.492Z,1.50
2018-08-18T14:42:28.628Z,2.70
2018-08-18T14:44:59.222Z,1.57
2018-08-18T14:47:27.989Z,2.70
2018-08-18T14:50:12.277Z,1.82
2018-08-18T14:52:42.364Z,1.60
2018-08-18T14:55:10.825Z,1.40
2018-08-18T14:57:46.049Z,1.50
2018-08-18T15:00:15.257Z,1.70
2018-08-18T15:02:43.787Z,1.75
2018-08-18T15:05:13.045Z,1.42
2018-08-18T15:07:49.629Z,1.72
2018-08-18T15:10:36.632Z,1.60
2018-08-18T15:13:05.921Z,1.70
2018-08-18T15:15:35.101Z,1.50
2018-08-18T15:18:05.573Z,1.77
2018-08-18T15:20:35.169Z,1.87
2018-08-18T15:23:05.027Z,1.67
2018-08-18T15:25:34.357Z,1.80
2018-08-18T15:28:12.153Z,2.95
2018-08-18T15:30:42.446Z,1.47
2018-08-18T15:33:14.274Z,1.82
2018-08-18T15:35:42.720Z,1.70
2018-08-18T15:38:19.739Z,1.82
2018-08-18T15:40:52.329Z,1.80
2018-08-18T15:43:21.352Z,1.50
2018-08-18T15:45:59.284Z,1.60
2018-08-18T15:48:29.131Z,2.08
2018-08-18T15:50:58.413Z,6.70
2018-08-18T15:54:02.218Z,1.75
2018-08-18T15:56:32.455Z,1.90
2018-08-18T15:59:06.352Z,1.50
2018-08-18T16:01:36.669Z,1.72
2018-08-18T16:04:06.457Z,1.57
2018-08-18T16:06:36.283Z,1.70
2018-08-18T16:09:08.108Z,1.62
2018-08-18T16:11:36.885Z,1.50
2018-08-18T16:14:05.308Z,1.65
2018-08-18T16:16:48.587Z,1.52
2018-08-18T16:19:17.621Z,1.75
2018-08-18T16:21:47.527Z,1.90
2018-08-18T16:24:33.805Z,1.92
2018-08-18T16:27:05.902Z,2.55
2018-08-18T16:29:35.053Z,1.75
2018-08-18T16:32:19.537Z,1.70
2018-08-18T16:34:51.536Z,1.57
2018-08-18T16:37:20.276Z,1.60
2018-08-18T16:39:49.473Z,1.72
2018-08-18T16:42:18.765Z,1.35
2018-08-18T16:44:49.478Z,1.60
2018-08-18T16:47:17.919Z,1.35
2018-08-18T16:49:47.891Z,1.50
2018-08-18T16:52:16.520Z,4.47
2018-08-18T16:54:46.636Z,1.82
2018-08-18T16:57:15.172Z,1.47
2018-08-18T16:59:43.713Z,1.62
2018-08-18T17:02:48.687Z,1.50
2018-08-18T17:05:17.617Z,1.40
2018-08-18T17:07:47.476Z,1.67
2018-08-18T17:10:16.246Z,2.10
2018-08-18T17:12:44.895Z,1.37
2018-08-18T17:15:13.387Z,1.87
2018-08-18T17:17:41.842Z,1.67
2018-08-18T17:20:10.580Z,1.62
2018-08-18T17:22:44.165Z,1.65
2018-08-18T17:25:12.636Z,1.60
2018-08-18T17:27:41.225Z,1.60
2018-08-18T17:30:09.948Z,1.85
2018-08-18T17:32:38.385Z,1.67
2018-08-18T17:35:07.190Z,2.05
2018-08-18T17:37:35.658Z,1.65
2018-08-18T17:40:04.905Z,1.82
2018-08-18T17:42:37.770Z,2.20
2018-08-18T17:45:06.236Z,2.10
2018-08-18T17:47:39.797Z,2.33
2018-08-18T17:50:08.288Z,2.10
2018-08-18T17:52:36.799Z,2.00
2018-08-18T17:55:13.504Z,2.27
2018-08-18T18:00:20.848Z,3.37
2018-08-18T18:02:54.605Z,2.75
2018-08-18T18:05:25.888Z,2.50
2018-08-18T18:07:57.692Z,3.05
2018-08-18T18:10:32.697Z,2.47
2018-08-18T18:13:01.316Z,2.15
2018-08-18T18:15:38.217Z,1.90
2018-08-18T18:18:08.832Z,2.42
2018-08-18T18:20:38.437Z,2.60
2018-08-18T18:23:09.792Z,2.50
2018-08-18T18:25:38.372Z,2.47
2018-08-18T18:28:06.996Z,2.27
2018-08-18T18:30:35.673Z,2.05
2018-08-18T18:33:05.437Z,2.40
2018-08-18T18:35:34.273Z,2.12
2018-08-18T18:38:03.980Z,2.10
2018-08-18T18:40:39.810Z,2.25
2018-08-18T18:43:08.504Z,2.05
2018-08-18T18:45:37.140Z,1.90
2018-08-18T18:48:06.657Z,2.00
2018-08-18T18:50:36.096Z,2.20
2018-08-18T18:53:04.705Z,1.90
2018-08-18T18:55:41.006Z,2.20
2018-08-18T18:58:12.715Z,2.50
2018-08-18T19:00:46.025Z,2.00
2018-08-18T19:03:14.551Z,2.60
2018-08-18T19:05:47.905Z,2.17
2018-08-18T19:08:22.305Z,2.05
2018-08-18T19:10:50.889Z,1.95
2018-08-18T19:13:19.445Z,1.87
2018-08-18T19:15:48.873Z,1.98
2018-08-18T19:18:17.848Z,2.30
2018-08-18T19:20:46.398Z,2.10
2018-08-18T19:23:22.998Z,2.40
2018-08-18T19:25:52.256Z,2.00
2018-08-18T19:28:22.271Z,1.90
2018-08-18T19:30:51.588Z,1.75
2018-08-18T19:33:23.228Z,1.92
2018-08-18T19:35:53.452Z,2.12
2018-08-18T19:38:24.887Z,2.20
2018-08-18T19:40:55.433Z,2.25
2018-08-18T19:43:30.585Z,1.92
2018-08-18T19:48:33.706Z,2.42
2018-08-18T19:51:04.481Z,2.58
2018-08-18T19:53:35.069Z,2.87
2018-08-18T19:56:08.266Z,2.10
2018-08-18T19:58:38.868Z,2.42
2018-08-18T20:01:11.211Z,2.47
2018-08-18T20:03:40.521Z,2.30
2018-08-18T20:06:13.524Z,2.75
2018-08-18T20:08:42.023Z,3.17
2018-08-18T20:11:11.223Z,3.33
2018-08-18T20:13:39.665Z,3.30
2018-08-18T20:16:08.836Z,3.12
2018-08-18T20:18:37.331Z,3.10
2018-08-18T20:21:07.112Z,3.27
2018-08-18T20:23:35.693Z,2.47
2018-08-18T20:28:41.941Z,2.60
2018-08-18T20:31:10.635Z,3.15
2018-08-18T20:33:39.083Z,3.65
2018-08-18T20:36:09.167Z,4.00
2018-08-18T20:41:24.064Z,3.00
2018-08-18T20:43:52.517Z,3.17
2018-08-18T20:46:21.000Z,3.70
2018-08-18T20:48:49.953Z,3.72
2018-08-18T20:51:23.229Z,3.77
2018-08-18T20:53:52.453Z,5.50
2018-08-18T20:56:20.932Z,6.08
2018-08-18T20:58:49.877Z,6.10
2018-08-18T21:01:26.472Z,6.30
2018-08-18T21:03:54.981Z,4.47
2018-08-18T21:06:23.638Z,3.60
2018-08-18T21:08:52.654Z,3.62
2018-08-18T21:11:21.091Z,3.35
2018-08-18T21:13:51.121Z,3.02
2018-08-18T21:16:20.647Z,3.47
2018-08-18T21:18:50.098Z,3.15
2018-08-18T21:21:35.175Z,3.33
2018-08-18T21:24:04.605Z,3.20
2018-08-18T21:26:33.157Z,3.02
2018-08-18T21:29:02.346Z,3.42
2018-08-18T21:31:32.825Z,3.65
2018-08-18T21:34:02.582Z,3.37
2018-08-18T21:36:32.071Z,3.20
2018-08-18T21:39:02.842Z,2.87
2018-08-18T21:41:32.796Z,2.70
2018-08-18T21:44:01.707Z,3.00
2018-08-18T21:46:35.765Z,2.95
2018-08-18T21:49:04.973Z,3.33
2018-08-18T21:51:34.194Z,3.35
2018-08-18T21:54:03.360Z,3.20
2018-08-18T21:56:41.942Z,3.33
2018-08-18T21:59:12.449Z,3.65
2018-08-18T22:01:41.617Z,3.37
2018-08-18T22:04:12.822Z,3.30
2018-08-18T22:06:42.105Z,3.50
2018-08-18T22:09:25.909Z,3.40
2018-08-18T22:11:55.724Z,3.87
2018-08-18T22:14:26.385Z,4.00
2018-08-18T22:16:57.561Z,3.50
2018-08-18T22:19:27.037Z,3.62
2018-08-18T22:21:56.931Z,3.90
2018-08-18T22:24:30.223Z,3.95
2018-08-18T22:26:58.689Z,3.20
2018-08-18T22:29:27.257Z,3.00
2018-08-18T22:31:55.863Z,3.70
2018-08-18T22:34:24.928Z,3.83
2018-08-18T22:37:02.974Z,3.60
2018-08-18T22:39:32.028Z,3.70
2018-08-18T22:42:01.156Z,3.50
2018-08-18T22:44:29.622Z,3.60
2018-08-18T22:47:00.902Z,3.60
2018-08-18T22:49:30.648Z,3.10
2018-08-18T22:51:59.137Z,3.33
2018-08-18T22:54:27.810Z,3.00
2018-08-18T22:57:02.887Z,3.62
2018-08-18T22:59:32.021Z,4.87
2018-08-18T23:02:02.648Z,5.47
2018-08-18T23:04:36.282Z,5.40
2018-08-18T23:07:05.489Z,5.00
2018-08-18T23:09:34.439Z,5.20
2018-08-18T23:12:04.658Z,5.95
2018-08-18T23:14:35.771Z,6.37
2018-08-18T23:17:05.129Z,6.40
2018-08-18T23:19:34.097Z,5.75
2018-08-18T23:22:03.011Z,4.70
2018-08-18T23:24:34.228Z,4.67
2018-08-18T23:27:03.110Z,4.95
2018-08-18T23:29:31.559Z,4.30
2018-08-18T23:32:00.655Z,4.45
2018-08-18T23:34:29.160Z,4.12
2018-08-18T23:36:59.685Z,3.40
2018-08-18T23:39:33.761Z,3.20
2018-08-18T23:42:14.913Z,4.12
2018-08-18T23:44:44.172Z,3.33
2018-08-18T23:47:12.626Z,3.40
2018-08-18T23:49:46.297Z,3.30
2018-08-18T23:52:16.380Z,3.27
2018-08-18T23:54:50.788Z,3.25
2018-08-18T23:57:23.122Z,3.20
2018-08-18T23:59:58.161Z,3.10
